createdAt,value
2018-07-25T00:00:16.700Z,3.40
2018-07-25T00:05:19.730Z,3.37
2018-07-25T00:10:27.218Z,3.20
2018-07-25T00:15:30.251Z,3.43
2018-07-25T00:20:33.313Z,3.30
2018-07-25T00:25:36.371Z,4.93
2018-07-25T00:30:39.427Z,4.03
2018-07-25T00:35:42.579Z,3.27
2018-07-25T00:40:45.670Z,4.10
2018-07-25T00:45:48.749Z,4.43
2018-07-25T00:50:51.784Z,4.57
2018-07-25T00:55:54.787Z,4.00
2018-07-25T01:00:57.796Z,3.97
2018-07-25T01:06:00.839Z,3.90
2018-07-25T01:11:03.881Z,3.80
2018-07-25T01:16:06.972Z,4.67
2018-07-25T01:21:10.047Z,4.10
2018-07-25T01:26:13.075Z,4.20
2018-07-25T01:31:16.111Z,4.00
2018-07-25T01:36:19.127Z,4.03
2018-07-25T01:41:22.196Z,4.10
2018-07-25T01:46:25.210Z,4.17
2018-07-25T01:51:28.222Z,4.40
2018-07-25T01:56:31.323Z,4.20
2018-07-25T02:01:34.343Z,4.13
2018-07-25T02:06:37.330Z,3.67
2018-07-25T02:11:40.343Z,4.07
2018-07-25T02:16:43.740Z,3.90
2018-07-25T02:21:46.744Z,4.43
2018-07-25T02:26:49.897Z,4.60
2018-07-25T02:31:53.014Z,5.20
2018-07-25T02:36:56.067Z,4.40
2018-07-25T02:41:59.163Z,4.23
2018-07-25T02:47:02.209Z,4.13
2018-07-25T02:52:05.267Z,4.37
2018-07-25T02:57:08.382Z,4.80
2018-07-25T03:02:11.404Z,5.20
2018-07-25T03:07:14.491Z,3.90
2018-07-25T03:12:17.494Z,4.30
2018-07-25T03:17:20.544Z,4.20
2018-07-25T03:22:23.570Z,5.07
2018-07-25T03:27:26.616Z,5.10
2018-07-25T03:32:29.628Z,4.53
2018-07-25T03:37:32.717Z,4.53
2018-07-25T03:42:35.743Z,5.37
2018-07-25T03:47:38.838Z,4.80
2018-07-25T03:52:41.838Z,4.03
2018-07-25T03:57:44.979Z,4.60
2018-07-25T04:02:48.056Z,4.87
2018-07-25T04:07:51.088Z,4.43
2018-07-25T04:12:54.516Z,5.13
2018-07-25T04:17:57.564Z,4.70
2018-07-25T04:23:00.574Z,5.17
2018-07-25T04:28:03.580Z,4.53
2018-07-25T04:33:06.641Z,4.80
2018-07-25T04:38:09.728Z,4.80
2018-07-25T04:43:12.774Z,4.00
2018-07-25T04:48:15.796Z,4.40
2018-07-25T04:53:18.846Z,4.57
2018-07-25T04:58:21.903Z,4.20
2018-07-25T05:03:25.071Z,4.70
2018-07-25T05:08:28.195Z,3.90
2018-07-25T05:13:31.224Z,3.93
2018-07-25T05:18:34.276Z,4.37
2018-07-25T05:23:37.308Z,3.53
2018-07-25T05:28:40.340Z,4.60
2018-07-25T05:33:43.518Z,3.97
2018-07-25T05:38:46.550Z,4.13
2018-07-25T05:43:49.624Z,4.07
2018-07-25T05:48:52.651Z,3.60
2018-07-25T05:53:55.689Z,3.70
2018-07-25T05:58:59.117Z,3.00
2018-07-25T06:04:02.129Z,3.43
2018-07-25T06:09:07.516Z,3.43
2018-07-25T06:14:10.399Z,3.33
2018-07-25T06:19:13.437Z,3.40
2018-07-25T06:24:16.495Z,3.20
2018-07-25T06:29:19.694Z,3.50
2018-07-25T06:34:22.837Z,3.77
2018-07-25T06:39:25.884Z,4.83
2018-07-25T06:44:28.946Z,3.30
2018-07-25T06:49:31.953Z,3.23
2018-07-25T06:54:35.019Z,3.97
2018-07-25T06:59:38.335Z,3.10
2018-07-25T07:04:41.443Z,3.37
2018-07-25T07:09:44.593Z,4.10
2018-07-25T07:14:47.750Z,3.13
2018-07-25T07:19:51.004Z,3.40
2018-07-25T07:24:54.062Z,2.83
2018-07-25T07:29:57.115Z,3.30
2018-07-25T07:35:00.181Z,3.83
2018-07-25T07:40:03.314Z,2.97
2018-07-25T07:45:07.431Z,2.80
2018-07-25T07:50:10.437Z,3.10
2018-07-25T07:55:13.627Z,3.50
2018-07-25T08:00:16.728Z,3.10
2018-07-25T08:05:19.763Z,3.43
2018-07-25T08:10:22.768Z,3.20
2018-07-25T08:15:25.760Z,3.23
2018-07-25T08:20:28.839Z,3.30
2018-07-25T08:25:32.052Z,3.80
2018-07-25T08:30:35.118Z,2.90
2018-07-25T08:35:38.287Z,3.23
2018-07-25T08:40:41.418Z,3.20
2018-07-25T08:45:44.500Z,3.73
2018-07-25T08:50:47.539Z,3.70
2018-07-25T08:55:51.679Z,3.27
2018-07-25T09:00:54.703Z,2.87
2018-07-25T09:05:57.716Z,2.73
2018-07-25T09:11:00.757Z,2.63
2018-07-25T09:16:04.056Z,3.07
2018-07-25T09:21:07.517Z,2.70
2018-07-25T09:26:10.571Z,2.90
2018-07-25T09:31:13.585Z,2.80
2018-07-25T09:36:16.647Z,2.90
2018-07-25T09:41:19.657Z,2.23
2018-07-25T09:46:22.786Z,2.73
2018-07-25T09:51:25.867Z,2.40
2018-07-25T09:56:28.750Z,2.40
2018-07-25T10:01:31.844Z,2.40
2018-07-25T10:06:34.914Z,2.27
2018-07-25T10:11:37.962Z,2.50
2018-07-25T10:16:41.003Z,2.40
2018-07-25T10:21:44.055Z,2.50
2018-07-25T10:26:47.112Z,1.70
2018-07-25T10:31:50.192Z,1.97
2018-07-25T10:36:53.244Z,2.00
2018-07-25T10:41:56.303Z,1.93
2018-07-25T10:46:59.384Z,2.20
2018-07-25T10:52:02.432Z,2.10
2018-07-25T10:57:05.503Z,1.53
2018-07-25T11:02:08.629Z,1.70
2018-07-25T11:07:11.620Z,1.63
2018-07-25T11:12:14.685Z,1.80
2018-07-25T11:17:17.701Z,1.60
2018-07-25T11:22:20.735Z,1.40
2018-07-25T11:27:23.783Z,1.73
2018-07-25T11:32:26.867Z,2.00
2018-07-25T11:37:29.893Z,1.77
2018-07-25T11:42:32.952Z,2.20
2018-07-25T11:47:36.030Z,1.53
2018-07-25T11:52:39.064Z,2.27
2018-07-25T11:57:42.146Z,1.70
2018-07-25T12:02:45.206Z,1.83
2018-07-25T12:07:48.284Z,1.90
2018-07-25T12:12:51.480Z,2.00
2018-07-25T12:17:54.323Z,1.73
2018-07-25T12:22:57.402Z,1.60
2018-07-25T12:28:00.536Z,1.90
2018-07-25T12:33:03.584Z,2.20
2018-07-25T12:38:06.618Z,2.10
2018-07-25T12:43:09.638Z,2.10
2018-07-25T12:48:12.649Z,1.40
2018-07-25T12:53:15.690Z,1.70
2018-07-25T12:58:19.106Z,2.40
2018-07-25T13:03:22.148Z,1.20
2018-07-25T13:08:25.410Z,1.70
2018-07-25T13:13:28.580Z,2.53
2018-07-25T13:18:31.647Z,1.80
2018-07-25T13:23:34.679Z,1.30
2018-07-25T13:28:37.732Z,1.90
2018-07-25T13:33:40.857Z,1.77
2018-07-25T13:38:44.018Z,2.20
2018-07-25T13:43:47.193Z,1.60
2018-07-25T13:48:50.215Z,1.87
2018-07-25T13:53:53.258Z,1.87
2018-07-25T13:58:56.305Z,2.70
2018-07-25T14:03:59.413Z,1.87
2018-07-25T14:09:02.429Z,1.70
2018-07-25T14:14:05.548Z,1.80
2018-07-25T14:19:08.852Z,2.47
2018-07-25T14:24:11.993Z,2.27
2018-07-25T14:29:15.005Z,1.93
2018-07-25T14:34:18.220Z,2.33
2018-07-25T14:39:21.163Z,2.30
2018-07-25T14:44:24.309Z,3.10
2018-07-25T14:49:27.277Z,1.83
2018-07-25T14:54:30.320Z,1.77
2018-07-25T14:59:33.393Z,1.80
2018-07-25T15:04:36.492Z,1.77
2018-07-25T15:09:40.055Z,1.57
2018-07-25T15:14:43.195Z,1.70
2018-07-25T15:19:46.275Z,1.50
2018-07-25T15:24:49.311Z,1.97
2018-07-25T15:29:52.364Z,2.13
2018-07-25T15:34:55.557Z,1.97
2018-07-25T15:39:58.596Z,1.80
2018-07-25T15:45:01.744Z,1.83
2018-07-25T15:50:05.383Z,1.93
2018-07-25T15:55:08.439Z,1.60
2018-07-25T16:00:11.457Z,1.60
2018-07-25T16:05:14.519Z,2.13
2018-07-25T16:10:17.661Z,1.83
2018-07-25T16:15:20.727Z,1.80
2018-07-25T16:20:23.775Z,1.87
2018-07-25T16:25:26.821Z,2.00
2018-07-25T16:30:29.877Z,1.80
2018-07-25T16:35:32.969Z,2.00
2018-07-25T16:40:35.993Z,2.60
2018-07-25T16:45:39.094Z,1.90
2018-07-25T16:50:42.253Z,1.80
2018-07-25T16:55:45.582Z,1.97
2018-07-25T17:00:48.611Z,2.10
2018-07-25T17:05:51.692Z,1.90
2018-07-25T17:10:54.736Z,1.50
2018-07-25T17:15:57.825Z,2.43
2018-07-25T17:21:00.882Z,2.40
2018-07-25T17:26:03.937Z,1.73
2018-07-25T17:31:06.976Z,2.00
2018-07-25T17:36:10.022Z,1.80
2018-07-25T17:41:13.110Z,1.87
2018-07-25T17:46:16.218Z,2.10
2018-07-25T17:51:19.244Z,1.90
2018-07-25T17:56:22.672Z,2.50
2018-07-25T18:01:25.742Z,1.93
2018-07-25T18:06:28.763Z,2.00
2018-07-25T18:11:31.829Z,1.80
2018-07-25T18:16:34.979Z,2.63
2018-07-25T18:21:38.138Z,2.90
2018-07-25T18:26:41.751Z,2.60
2018-07-25T18:31:45.059Z,2.00
2018-07-25T18:36:48.242Z,2.77
2018-07-25T18:41:51.332Z,2.60
2018-07-25T18:46:54.389Z,3.17
2018-07-25T18:51:57.540Z,2.63
2018-07-25T18:57:00.606Z,2.97
2018-07-25T19:02:03.654Z,2.90
2018-07-25T19:07:06.762Z,2.60
2018-07-25T19:12:09.784Z,2.43
2018-07-25T19:17:12.837Z,2.90
2018-07-25T19:22:15.882Z,2.87
2018-07-25T19:27:18.975Z,2.03
2018-07-25T19:32:22.076Z,3.10
2018-07-25T19:37:25.104Z,3.00
2018-07-25T19:42:28.128Z,2.83
2018-07-25T19:47:31.165Z,3.80
2018-07-25T19:52:34.244Z,3.27
2018-07-25T19:57:37.274Z,3.17
2018-07-25T20:02:40.809Z,3.10
2018-07-25T20:07:44.028Z,4.57
2018-07-25T20:12:47.647Z,2.90
2018-07-25T20:17:51.166Z,2.73
2018-07-25T20:22:54.274Z,3.73
2018-07-25T20:27:57.563Z,2.90
2018-07-25T20:33:00.599Z,3.23
2018-07-25T20:38:03.643Z,2.77
2018-07-25T20:43:06.950Z,3.07
2018-07-25T20:48:10.095Z,2.80
2018-07-25T20:53:13.184Z,3.10
2018-07-25T20:58:17.463Z,4.80
2018-07-25T21:03:20.551Z,3.70
2018-07-25T21:08:23.560Z,3.67
2018-07-25T21:13:26.592Z,2.63
2018-07-25T21:18:29.674Z,2.37
2018-07-25T21:23:32.748Z,3.07
2018-07-25T21:28:35.805Z,2.57
2018-07-25T21:33:38.875Z,2.70
2018-07-25T21:38:42.036Z,2.10
2018-07-25T21:43:45.136Z,2.63
2018-07-25T21:48:48.237Z,2.80
2018-07-25T21:53:51.297Z,3.60
2018-07-25T21:58:54.503Z,2.60
2018-07-25T22:03:57.564Z,2.70
2018-07-25T22:09:00.639Z,2.30
2018-07-25T22:14:06.863Z,3.20
2018-07-25T22:19:09.930Z,2.90
2018-07-25T22:24:13.061Z,3.17
2018-07-25T22:29:16.088Z,3.10
2018-07-25T22:34:19.172Z,3.20
2018-07-25T22:39:22.196Z,2.87
2018-07-25T22:44:25.310Z,2.87
2018-07-25T22:49:28.326Z,2.63
2018-07-25T22:54:31.411Z,3.10
2018-07-25T22:59:34.498Z,2.80
2018-07-25T23:04:37.529Z,2.90
2018-07-25T23:09:40.598Z,2.63
2018-07-25T23:14:43.874Z,3.00
2018-07-25T23:19:46.796Z,2.83
2018-07-25T23:24:49.928Z,2.33
2018-07-25T23:29:53.145Z,2.97
2018-07-25T23:34:56.207Z,3.03
2018-07-25T23:39:59.242Z,3.00
2018-07-25T23:45:02.366Z,2.27
2018-07-25T23:50:05.648Z,3.20
2018-07-25T23:55:09.280Z,2.83
